Time;durP1;ratioP1;P1;durP2;ratioP2;P2;SDS_P1;SDS_P2;PMS_P1;PMS_P2;Temp;Humidity;BMP_temperature;BMP_pressure;BME280_temperature;BME280_humidity;BME280_pressure;Samples;Min_cycle;Max_cycle;Signal;HPM_P1;HPM_P2
2023/05/10 00:00:29;;;;;;;5.17;2.10;;;15.50;46.90;;;;;;5091010;28;20503;-67
2023/05/10 00:02:56;;;;;;;4.90;2.60;;;15.50;47.00;;;;;;5094789;28;20457;-67
2023/05/10 00:05:22;;;;;;;4.70;1.93;;;15.50;47.20;;;;;;5095297;28;20486;-67
2023/05/10 00:07:49;;;;;;;4.80;2.23;;;15.50;47.30;;;;;;5091260;28;20452;-66
2023/05/10 00:10:16;;;;;;;4.73;2.23;;;15.50;47.20;;;;;;5101222;28;20492;-66
2023/05/10 00:12:43;;;;;;;12.20;2.00;;;15.40;47.10;;;;;;5092875;28;20507;-66
2023/05/10 00:15:11;;;;;;;5.23;1.93;;;15.40;46.80;;;;;;5091848;28;20473;-66
2023/05/10 00:17:38;;;;;;;4.50;1.90;;;15.40;46.50;;;;;;5090402;28;20826;-66
2023/05/10 00:20:06;;;;;;;4.83;2.30;;;15.40;46.50;;;;;;5094889;28;20459;-66
2023/05/10 00:22:33;;;;;;;4.43;1.90;;;15.40;46.60;;;;;;5093042;28;20459;-67
2023/05/10 00:25:00;;;;;;;4.87;2.10;;;15.40;46.60;;;;;;5090528;28;20483;-67
2023/05/10 00:27:26;;;;;;;4.60;1.93;;;15.30;46.70;;;;;;5090488;28;20539;-67
2023/05/10 00:29:53;;;;;;;5.10;2.13;;;15.30;46.90;;;;;;5091975;28;20460;-67
2023/05/10 00:32:21;;;;;;;4.73;1.90;;;15.20;46.90;;;;;;5082473;28;20479;-67
2023/05/10 00:34:48;;;;;;;5.73;1.87;;;15.20;47.00;;;;;;5087958;28;20476;-67
2023/05/10 00:37:15;;;;;;;6.23;2.37;;;15.20;47.10;;;;;;5095209;28;20473;-68
2023/05/10 00:39:41;;;;;;;4.73;1.80;;;15.10;47.30;;;;;;5094134;28;20467;-67
2023/05/10 00:42:08;;;;;;;4.90;1.97;;;15.20;47.10;;;;;;5068637;28;20459;-67
2023/05/10 00:44:35;;;;;;;4.27;1.63;;;15.20;47.10;;;;;;5091362;28;21007;-67
2023/05/10 00:47:01;;;;;;;4.30;1.53;;;15.20;47.30;;;;;;5090390;28;20480;-67
2023/05/10 00:49:31;;;;;;;5.57;1.97;;;15.10;47.30;;;;;;5085813;28;20477;-67
2023/05/10 00:51:57;;;;;;;5.70;1.70;;;15.10;47.30;;;;;;5087936;28;20456;-67
2023/05/10 00:54:24;;;;;;;5.63;1.97;;;15.10;47.40;;;;;;5086790;28;20525;-67
2023/05/10 00:56:51;;;;;;;6.13;1.87;;;15.10;47.40;;;;;;5088774;28;20873;-67
2023/05/10 00:59:19;;;;;;;4.43;1.73;;;15.10;48.20;;;;;;5093237;28;20456;-67
2023/05/10 01:01:46;;;;;;;4.80;1.60;;;15.10;47.30;;;;;;5093011;28;20479;-67
2023/05/10 01:04:14;;;;;;;4.00;1.50;;;15.10;47.20;;;;;;5088401;28;20499;-67
2023/05/10 01:06:42;;;;;;;5.00;1.50;;;15.10;47.20;;;;;;5090069;28;20559;-67
2023/05/10 01:09:09;;;;;;;4.83;1.60;;;15.10;47.50;;;;;;5086247;28;20476;-67
2023/05/10 01:11:38;;;;;;;4.30;1.50;;;15.10;47.50;;;;;;5092085;28;20448;-67
2023/05/10 01:14:06;;;;;;;4.53;1.60;;;15.10;47.60;;;;;;5089644;28;20963;-67
2023/05/10 01:16:37;;;;;;;4.50;1.80;;;15.00;47.50;;;;;;5086706;28;20463;-67
2023/05/10 01:19:07;;;;;;;4.90;2.00;;;15.00;47.50;;;;;;5091856;28;20460;-67
2023/05/10 01:21:42;;;;;;;7.57;1.53;;;15.00;47.60;;;;;;5092182;28;21094;-67
2023/05/10 01:24:40;;;;;;;4.53;1.70;;;15.00;47.60;;;;;;5090890;28;20456;-67
2023/05/10 01:27:43;;;;;;;4.27;1.43;;;15.00;47.80;;;;;;5086240;28;20468;-67
2023/05/10 01:30:43;;;;;;;4.83;1.30;;;14.90;47.90;;;;;;5056383;28;20451;-67
2023/05/10 01:33:20;;;;;;;4.60;1.40;;;14.90;47.90;;;;;;5090873;28;20459;-67
2023/05/10 01:35:53;;;;;;;3.90;1.13;;;14.90;47.90;;;;;;5087190;28;20486;-67
2023/05/10 01:38:25;;;;;;;4.10;1.20;;;14.90;47.80;;;;;;5087995;28;20457;-67
2023/05/10 01:41:00;;;;;;;3.80;1.10;;;14.90;47.80;;;;;;5086826;28;20491;-67
2023/05/10 01:43:33;;;;;;;3.83;1.10;;;14.90;47.80;;;;;;5085962;28;20474;-67
2023/05/10 01:46:10;;;;;;;4.90;1.20;;;14.90;47.80;;;;;;5091171;28;20519;-67
2023/05/10 01:48:40;;;;;;;3.50;0.70;;;14.90;47.90;;;;;;5093077;22;20493;-66
2023/05/10 01:51:09;;;;;;;4.07;1.13;;;14.90;48.00;;;;;;5056582;28;20457;-67
2023/05/10 01:53:39;;;;;;;3.80;0.90;;;14.90;47.90;;;;;;5064309;28;20457;-67
2023/05/10 01:56:08;;;;;;;3.80;0.87;;;14.80;48.00;;;;;;5062922;28;20473;-68
2023/05/10 01:58:37;;;;;;;3.80;0.87;;;14.80;47.90;;;;;;5063056;28;20473;-68
2023/05/10 02:01:06;;;;;;;6.03;0.70;;;14.80;47.50;;;;;;5058890;28;21487;-67
2023/05/10 02:03:35;;;;;;;3.83;0.90;;;14.80;47.80;;;;;;5055186;28;20479;-68
2023/05/10 02:06:04;;;;;;;7.33;0.80;;;14.80;47.70;;;;;;5067650;28;20977;-68
2023/05/10 02:08:31;;;;;;;3.60;0.70;;;14.80;47.80;;;;;;5061420;28;20465;-68
2023/05/10 02:10:59;;;;;;;3.57;0.70;;;14.80;47.70;;;;;;5061868;28;20465;-67
2023/05/10 02:13:27;;;;;;;3.60;0.70;;;14.90;47.90;;;;;;5065411;28;20968;-68
2023/05/10 02:15:55;;;;;;;3.60;0.80;;;14.90;47.70;;;;;;5061985;28;20473;-68
2023/05/10 02:18:24;;;;;;;4.60;0.90;;;14.90;47.50;;;;;;5060363;28;20461;-68
2023/05/10 02:20:54;;;;;;;3.87;0.87;;;14.90;47.50;;;;;;5058931;28;20462;-68
2023/05/10 02:23:25;;;;;;;4.20;0.90;;;14.90;47.30;;;;;;5067191;28;20463;-68
2023/05/10 02:25:53;;;;;;;4.97;1.00;;;14.90;47.30;;;;;;5062372;28;20473;-67
2023/05/10 02:28:22;;;;;;;3.87;0.90;;;14.90;46.90;;;;;;5065419;28;20465;-68
2023/05/10 02:30:49;;;;;;;3.73;1.00;;;14.90;46.90;;;;;;5061300;28;20483;-67
2023/05/10 02:33:16;;;;;;;3.60;0.70;;;14.90;46.90;;;;;;5065534;28;20465;-67
2023/05/10 02:35:42;;;;;;;4.17;1.00;;;14.90;46.90;;;;;;5063841;28;20477;-68
2023/05/10 02:38:11;;;;;;;5.00;1.17;;;14.90;46.80;;;;;;5064498;28;20465;-67
2023/05/10 02:40:42;;;;;;;4.80;1.00;;;14.80;46.80;;;;;;5062779;28;20630;-67
2023/05/10 02:43:11;;;;;;;3.53;0.70;;;14.80;46.80;;;;;;5063992;28;20461;-67
2023/05/10 02:45:39;;;;;;;4.27;0.97;;;14.80;46.70;;;;;;5059475;28;20492;-67
2023/05/10 02:48:07;;;;;;;3.80;0.83;;;14.80;46.50;;;;;;5064084;28;20497;-67
2023/05/10 02:50:34;;;;;;;3.50;0.70;;;14.80;46.20;;;;;;5059616;28;20865;-67
2023/05/10 02:53:04;;;;;;;3.37;0.57;;;14.80;45.90;;;;;;5057505;28;20457;-67
2023/05/10 02:55:36;;;;;;;3.67;0.63;;;14.80;46.00;;;;;;5060635;28;20481;-67
2023/05/10 02:58:04;;;;;;;5.70;0.60;;;14.80;46.10;;;;;;5059090;28;20465;-67
2023/05/10 03:00:32;;;;;;;3.47;0.63;;;14.80;46.00;;;;;;5060293;28;20476;-69
2023/05/10 03:02:59;;;;;;;3.40;0.50;;;14.80;45.80;;;;;;5060713;28;20470;-67
2023/05/10 03:05:26;;;;;;;3.47;0.60;;;14.80;45.70;;;;;;5062512;28;20485;-67
2023/05/10 03:07:53;;;;;;;4.73;0.70;;;14.70;45.60;;;;;;5060098;28;20500;-67
2023/05/10 03:10:23;;;;;;;3.70;0.60;;;14.70;45.60;;;;;;5061566;28;20983;-68
2023/05/10 03:13:02;;;;;;;4.67;0.60;;;14.70;45.40;;;;;;5067651;28;20457;-67
2023/05/10 03:15:41;;;;;;;3.47;0.53;;;14.70;45.40;;;;;;5066225;28;20530;-67
2023/05/10 03:18:10;;;;;;;4.10;0.40;;;14.70;45.20;;;;;;5066990;28;20945;-67
2023/05/10 03:20:43;;;;;;;3.50;0.50;;;14.60;45.00;;;;;;5065938;28;20458;-66
2023/05/10 03:23:17;;;;;;;4.67;0.70;;;14.60;44.90;;;;;;5063149;28;20469;-67
2023/05/10 03:25:45;;;;;;;3.40;0.43;;;14.60;44.60;;;;;;5065629;28;20487;-66
2023/05/10 03:28:13;;;;;;;3.27;0.40;;;14.60;44.30;;;;;;5069023;28;20484;-67
2023/05/10 03:30:42;;;;;;;6.30;0.40;;;14.60;44.30;;;;;;5058418;28;20489;-68
2023/05/10 03:33:08;;;;;;;3.40;0.53;;;14.60;44.40;;;;;;5063400;28;20855;-65
2023/05/10 03:35:35;;;;;;;3.93;0.40;;;14.50;45.10;;;;;;5064561;28;20485;-67
2023/05/10 03:38:02;;;;;;;3.70;0.80;;;14.50;44.30;;;;;;5063878;28;20461;-68
2023/05/10 03:40:31;;;;;;;4.10;0.60;;;14.50;44.40;;;;;;5054478;28;20517;-69
2023/05/10 03:42:58;;;;;;;4.33;0.83;;;14.50;44.40;;;;;;5060056;28;20476;-66
2023/05/10 03:45:25;;;;;;;5.50;0.70;;;14.40;44.60;;;;;;5062443;28;20489;-66
2023/05/10 03:47:53;;;;;;;3.70;0.70;;;14.40;44.60;;;;;;5067004;28;20852;-66
2023/05/10 03:50:20;;;;;;;3.70;0.60;;;14.40;44.70;;;;;;5065555;28;20465;-65
2023/05/10 03:52:47;;;;;;;4.50;0.90;;;14.40;44.60;;;;;;5068079;28;20458;-65
2023/05/10 03:55:14;;;;;;;4.63;0.70;;;14.40;44.60;;;;;;5065680;28;20508;-67
2023/05/10 03:57:41;;;;;;;3.27;0.40;;;14.40;44.60;;;;;;5066475;28;20972;-68
2023/05/10 04:00:09;;;;;;;3.40;0.40;;;14.40;44.60;;;;;;5058572;28;20457;-68
2023/05/10 04:02:35;;;;;;;5.60;0.80;;;14.40;44.60;;;;;;5064791;28;20557;-68
2023/05/10 04:05:04;;;;;;;8.83;1.60;;;14.30;44.70;;;;;;5056306;28;20487;-67
2023/05/10 04:07:30;;;;;;;5.90;0.70;;;14.30;44.70;;;;;;5064257;28;20988;-67
2023/05/10 04:09:57;;;;;;;4.00;0.70;;;14.20;44.70;;;;;;5062867;28;20484;-67
2023/05/10 04:12:24;;;;;;;4.00;0.60;;;14.20;44.70;;;;;;5066108;28;20461;-67
2023/05/10 04:14:51;;;;;;;3.57;0.70;;;14.20;44.90;;;;;;5062834;28;20973;-67
2023/05/10 04:17:18;;;;;;;4.00;0.70;;;14.20;44.90;;;;;;5065949;28;20453;-67
2023/05/10 04:19:45;;;;;;;10.67;1.07;;;14.20;45.00;;;;;;5067962;28;21103;-67
2023/05/10 04:22:13;;;;;;;4.53;0.67;;;14.20;45.00;;;;;;5070909;28;20461;-66
2023/05/10 04:24:39;;;;;;;3.80;0.90;;;14.10;44.90;;;;;;5067583;28;20493;-66
2023/05/10 04:27:06;;;;;;;4.13;1.03;;;14.10;45.00;;;;;;5064983;28;20481;-66
2023/05/10 04:29:33;;;;;;;3.87;0.80;;;14.10;45.00;;;;;;5070761;28;21339;-66
2023/05/10 04:31:59;;;;;;;5.47;1.33;;;14.10;45.70;;;;;;5068524;28;20465;-67
2023/05/10 04:34:26;;;;;;;4.30;0.97;;;14.10;45.00;;;;;;5062669;28;20489;-67
2023/05/10 04:36:53;;;;;;;3.60;0.90;;;14.10;45.00;;;;;;5064039;28;20458;-67
2023/05/10 04:39:21;;;;;;;4.23;0.97;;;14.10;44.90;;;;;;5065157;28;20989;-65
2023/05/10 04:41:48;;;;;;;5.20;0.93;;;14.10;44.90;;;;;;5064689;28;20964;-66
2023/05/10 04:44:14;;;;;;;4.37;0.77;;;14.20;44.70;;;;;;5067509;28;20522;-65
2023/05/10 04:46:41;;;;;;;3.60;0.70;;;14.20;44.70;;;;;;5059580;28;20488;-67
2023/05/10 04:49:08;;;;;;;4.33;0.80;;;14.20;45.50;;;;;;5064386;28;20468;-67
2023/05/10 04:51:34;;;;;;;5.93;0.90;;;14.20;44.80;;;;;;5066386;28;21149;-67
2023/05/10 04:54:01;;;;;;;3.97;0.80;;;14.30;44.70;;;;;;5069799;28;20461;-66
2023/05/10 04:56:29;;;;;;;4.07;0.90;;;14.30;44.50;;;;;;5068860;28;20838;-65
2023/05/10 04:58:56;;;;;;;6.50;0.70;;;14.30;44.60;;;;;;5068906;28;20457;-67
2023/05/10 05:01:22;;;;;;;6.40;0.80;;;14.30;44.60;;;;;;5066855;28;20469;-67
2023/05/10 05:03:49;;;;;;;3.80;0.90;;;14.30;44.60;;;;;;5066483;28;20453;-66
2023/05/10 05:06:16;;;;;;;4.30;1.20;;;14.30;44.50;;;;;;5063858;28;20474;-66
2023/05/10 05:08:42;;;;;;;4.07;0.83;;;14.30;44.50;;;;;;5067046;28;20461;-66
2023/05/10 05:11:09;;;;;;;5.80;1.00;;;14.40;44.30;;;;;;5069865;28;20468;-66
2023/05/10 05:13:37;;;;;;;4.30;0.80;;;14.40;44.00;;;;;;5068716;28;20558;-67
2023/05/10 05:16:05;;;;;;;6.13;0.90;;;14.40;43.90;;;;;;5064182;28;20477;-67
2023/05/10 05:18:31;;;;;;;3.70;0.93;;;14.40;43.90;;;;;;5069411;28;20473;-67
2023/05/10 05:20:58;;;;;;;3.70;0.73;;;14.50;44.00;;;;;;5069447;28;20464;-66
2023/05/10 05:23:25;;;;;;;4.67;0.70;;;14.50;43.90;;;;;;5064566;28;20486;-65
2023/05/10 05:25:52;;;;;;;5.00;0.83;;;14.50;43.80;;;;;;5068304;28;20900;-67
2023/05/10 05:28:19;;;;;;;4.00;0.93;;;14.50;43.60;;;;;;5065655;28;20473;-67
2023/05/10 05:30:47;;;;;;;3.80;0.87;;;14.50;43.40;;;;;;5066056;28;20472;-66
2023/05/10 05:33:15;;;;;;;4.30;0.90;;;14.60;43.40;;;;;;5067640;28;20461;-66
2023/05/10 05:35:42;;;;;;;4.23;1.37;;;14.60;43.30;;;;;;5068060;28;20481;-67
2023/05/10 05:38:09;;;;;;;3.40;0.57;;;14.60;43.30;;;;;;5067767;28;20460;-67
2023/05/10 05:40:36;;;;;;;4.10;0.80;;;14.60;43.10;;;;;;5068001;28;20502;-67
2023/05/10 05:43:02;;;;;;;3.90;0.87;;;14.60;43.20;;;;;;5066808;28;20464;-66
2023/05/10 05:45:29;;;;;;;6.20;1.10;;;14.60;43.20;;;;;;5064169;28;20487;-67
2023/05/10 05:47:57;;;;;;;3.50;0.67;;;14.60;43.00;;;;;;5059505;28;20488;-64
2023/05/10 05:50:24;;;;;;;5.43;0.90;;;14.60;43.00;;;;;;5066416;28;20934;-67
2023/05/10 05:52:51;;;;;;;4.40;1.20;;;14.70;42.90;;;;;;5065350;28;20465;-67
2023/05/10 05:55:17;;;;;;;4.30;1.30;;;14.70;42.70;;;;;;5068807;28;20996;-67
2023/05/10 05:57:44;;;;;;;3.80;0.90;;;14.70;42.40;;;;;;5067290;28;20457;-66
2023/05/10 06:00:12;;;;;;;3.50;0.80;;;14.70;42.40;;;;;;5067005;28;21437;-67
2023/05/10 06:02:38;;;;;;;4.57;1.00;;;14.80;42.50;;;;;;5055702;28;20496;-67
2023/05/10 06:05:08;;;;;;;3.97;0.90;;;14.80;42.30;;;;;;5066840;28;20485;-66
2023/05/10 06:07:34;;;;;;;3.83;0.70;;;14.80;42.10;;;;;;5067961;28;20481;-67
2023/05/10 06:10:02;;;;;;;3.60;0.80;;;14.90;42.30;;;;;;5067697;28;20483;-65
2023/05/10 06:12:29;;;;;;;4.00;0.90;;;14.90;42.00;;;;;;5068563;28;20461;-67
2023/05/10 06:14:56;;;;;;;3.80;1.00;;;15.00;41.90;;;;;;5066090;28;20983;-66
2023/05/10 06:17:22;;;;;;;4.70;1.10;;;15.10;41.80;;;;;;5068792;28;20549;-66
2023/05/10 06:19:49;;;;;;;6.07;1.00;;;15.20;41.50;;;;;;5067280;28;20460;-65
2023/05/10 06:22:17;;;;;;;5.17;1.20;;;15.30;40.80;;;;;;5068534;28;20467;-65
2023/05/10 06:24:44;;;;;;;5.13;1.60;;;15.40;40.90;;;;;;5058875;28;20521;-65
2023/05/10 06:27:11;;;;;;;4.43;1.13;;;15.50;39.80;;;;;;5066203;28;20500;-65
2023/05/10 06:29:37;;;;;;;5.80;1.00;;;15.60;39.10;;;;;;5065882;28;20470;-66
2023/05/10 06:32:04;;;;;;;4.47;1.27;;;15.70;38.90;;;;;;5066654;28;20871;-66
2023/05/10 06:34:31;;;;;;;4.70;1.00;;;15.80;38.70;;;;;;5067900;28;20485;-66
2023/05/10 06:36:58;;;;;;;3.90;1.23;;;15.80;38.60;;;;;;5066731;28;20457;-66
2023/05/10 06:39:26;;;;;;;3.90;0.90;;;15.90;38.60;;;;;;5067779;28;20457;-66
2023/05/10 06:41:54;;;;;;;6.77;1.30;;;16.00;38.20;;;;;;5063756;28;20469;-67
2023/05/10 06:44:21;;;;;;;3.90;1.00;;;16.00;37.50;;;;;;5065572;28;20487;-67
2023/05/10 06:46:47;;;;;;;5.30;1.13;;;16.00;37.60;;;;;;5063355;28;20803;-66
2023/05/10 06:49:14;;;;;;;3.80;1.00;;;15.90;37.40;;;;;;5066319;28;20470;-66
2023/05/10 06:51:41;;;;;;;4.87;1.00;;;16.00;37.40;;;;;;5068518;28;20476;-66
2023/05/10 06:54:08;;;;;;;5.70;1.30;;;16.10;37.50;;;;;;5067248;28;20458;-66
2023/05/10 06:56:36;;;;;;;3.50;0.87;;;16.10;37.50;;;;;;5061472;28;20460;-66
2023/05/10 06:59:02;;;;;;;4.63;1.20;;;16.20;37.50;;;;;;5066852;28;20453;-67
2023/05/10 07:01:29;;;;;;;5.90;1.23;;;16.30;37.00;;;;;;5066988;28;20465;-66
2023/05/10 07:03:56;;;;;;;4.70;1.43;;;16.30;36.40;;;;;;5067021;28;20860;-67
2023/05/10 07:06:23;;;;;;;9.73;2.13;;;16.20;36.60;;;;;;5065174;28;21063;-66
2023/05/10 07:08:49;;;;;;;4.87;1.20;;;16.20;36.60;;;;;;5067496;28;21291;-67
2023/05/10 07:11:16;;;;;;;5.53;1.30;;;16.20;36.70;;;;;;5067578;28;20457;-66
2023/05/10 07:13:46;;;;;;;4.40;1.30;;;16.20;36.80;;;;;;5066648;28;20449;-66
2023/05/10 07:16:13;;;;;;;3.70;0.90;;;16.30;36.40;;;;;;5065854;28;21027;-66
2023/05/10 07:18:39;;;;;;;5.20;0.90;;;16.40;35.90;;;;;;5066889;28;20821;-66
2023/05/10 07:21:06;;;;;;;4.63;1.17;;;16.40;35.80;;;;;;5064963;28;20461;-66
2023/05/10 07:23:33;;;;;;;3.83;1.00;;;16.40;35.90;;;;;;5068182;28;20483;-66
2023/05/10 07:25:59;;;;;;;4.30;1.03;;;16.50;36.50;;;;;;5062471;28;20476;-66
2023/05/10 07:28:26;;;;;;;6.60;1.37;;;16.60;35.40;;;;;;5066967;28;20899;-66
2023/05/10 07:30:54;;;;;;;4.20;1.30;;;16.70;35.40;;;;;;5067055;28;20479;-66
2023/05/10 07:33:21;;;;;;;4.90;1.23;;;16.80;35.20;;;;;;5063411;28;20468;-66
2023/05/10 07:35:48;;;;;;;4.37;1.40;;;17.10;34.70;;;;;;5066618;28;20473;-67
2023/05/10 07:38:14;;;;;;;4.93;1.30;;;17.30;34.00;;;;;;5065551;28;20987;-66
2023/05/10 07:40:41;;;;;;;4.97;1.00;;;17.40;33.00;;;;;;5067821;28;20468;-67
2023/05/10 07:43:08;;;;;;;5.50;1.20;;;17.60;32.70;;;;;;5067178;28;20457;-67
2023/05/10 07:45:34;;;;;;;5.60;1.00;;;17.70;32.20;;;;;;5060303;28;20870;-66
2023/05/10 07:48:03;;;;;;;4.00;1.20;;;17.90;31.80;;;;;;5064731;28;20564;-66
2023/05/10 07:50:29;;;;;;;4.63;1.40;;;18.00;31.40;;;;;;5067802;28;20465;-66
2023/05/10 07:52:56;;;;;;;5.67;2.13;;;18.10;31.00;;;;;;5066543;28;20457;-66
2023/05/10 07:55:23;;;;;;;8.20;1.53;;;18.10;30.70;;;;;;5066204;28;20488;-66
2023/05/10 07:57:49;;;;;;;4.20;1.20;;;18.10;30.70;;;;;;5064624;28;20457;-66
2023/05/10 08:00:19;;;;;;;4.10;0.80;;;18.00;30.30;;;;;;5069939;28;20476;-66
2023/05/10 08:02:45;;;;;;;4.20;1.10;;;17.90;30.30;;;;;;5070182;28;20456;-67
2023/05/10 08:05:14;;;;;;;4.00;1.10;;;17.80;30.40;;;;;;5069345;28;20480;-66
2023/05/10 08:07:41;;;;;;;4.27;1.37;;;17.70;30.50;;;;;;5070581;28;20488;-66
2023/05/10 08:10:10;;;;;;;6.17;1.20;;;17.70;30.40;;;;;;5070723;28;20484;-66
2023/05/10 08:12:37;;;;;;;5.80;1.10;;;17.60;31.00;;;;;;5068784;28;20789;-66
2023/05/10 08:15:06;;;;;;;5.40;1.47;;;17.60;31.00;;;;;;5070260;28;20476;-66
2023/05/10 08:17:33;;;;;;;3.87;1.20;;;17.50;30.80;;;;;;5070561;28;20464;-66
2023/05/10 08:19:59;;;;;;;4.60;1.20;;;17.50;30.70;;;;;;5069353;28;20464;-66
2023/05/10 08:22:27;;;;;;;3.60;0.80;;;17.50;31.10;;;;;;5070522;28;20469;-66
2023/05/10 08:27:31;;;;;;;4.43;1.10;;;17.80;30.40;;;;;;5066770;28;20854;-67
2023/05/10 08:29:57;;;;;;;3.80;1.10;;;17.90;30.30;;;;;;5069422;28;20821;-67
2023/05/10 08:32:24;;;;;;;5.87;1.07;;;17.90;30.30;;;;;;5069216;28;20476;-67
2023/05/10 08:34:51;;;;;;;5.50;1.10;;;17.90;30.10;;;;;;5064105;28;20850;-67
2023/05/10 08:37:18;;;;;;;5.70;1.30;;;17.90;30.00;;;;;;5059243;28;20477;-67
2023/05/10 08:39:47;;;;;;;5.43;1.27;;;17.90;28.50;;;;;;5051717;28;20470;-67
2023/05/10 08:42:20;;;;;;;3.77;1.00;;;17.90;27.70;;;;;;5065047;28;21014;-68
2023/05/10 08:44:49;;;;;;;4.53;1.40;;;17.90;27.30;;;;;;5057157;28;20505;-67
2023/05/10 08:47:18;;;;;;;3.90;1.20;;;17.90;27.30;;;;;;5061408;28;20462;-67
2023/05/10 08:49:48;;;;;;;5.77;1.30;;;17.90;27.50;;;;;;5059337;28;20808;-67
2023/05/10 08:52:17;;;;;;;3.87;1.10;;;17.80;26.90;;;;;;5057638;28;20466;-67
2023/05/10 08:54:44;;;;;;;4.00;0.90;;;17.70;27.30;;;;;;5054267;28;20482;-67
2023/05/10 08:57:12;;;;;;;5.00;1.20;;;18.00;27.20;;;;;;5065823;28;20542;-67
2023/05/10 08:59:39;;;;;;;4.10;1.03;;;18.40;26.80;;;;;;5057410;28;20457;-67
2023/05/10 09:02:07;;;;;;;4.73;1.50;;;19.10;25.00;;;;;;5061344;28;20497;-67
2023/05/10 09:04:34;;;;;;;11.87;1.60;;;19.90;23.70;;;;;;5058144;28;20992;-67
2023/05/10 09:07:01;;;;;;;4.20;1.10;;;20.90;21.70;;;;;;5061931;28;20462;-67
2023/05/10 09:09:28;;;;;;;4.00;1.33;;;21.70;19.70;;;;;;5062041;28;20555;-67
2023/05/10 09:11:55;;;;;;;3.77;1.13;;;22.10;16.20;;;;;;5058649;28;20461;-67
2023/05/10 09:14:25;;;;;;;5.37;1.27;;;22.30;15.60;;;;;;5059400;28;20490;-67
2023/05/10 09:16:53;;;;;;;4.30;1.20;;;22.30;14.10;;;;;;5061504;28;20533;-67
2023/05/10 09:19:20;;;;;;;3.53;0.77;;;22.40;13.40;;;;;;5065112;28;20830;-67
2023/05/10 09:21:47;;;;;;;4.23;1.00;;;22.40;12.40;;;;;;5063554;28;20453;-67
2023/05/10 09:24:13;;;;;;;4.70;0.90;;;22.10;12.80;;;;;;5060973;28;20484;-67
2023/05/10 09:26:47;;;;;;;3.73;0.90;;;21.70;13.60;;;;;;5061555;28;20484;-67
2023/05/10 09:29:15;;;;;;;3.80;0.80;;;21.20;14.40;;;;;;5061571;28;20489;-67
2023/05/10 09:31:48;;;;;;;10.30;1.43;;;20.80;15.60;;;;;;5061373;28;20466;-67
2023/05/10 09:34:18;;;;;;;3.70;0.80;;;20.60;16.60;;;;;;5059427;28;20484;-67
2023/05/10 09:36:53;;;;;;;5.73;0.80;;;20.40;16.90;;;;;;5060592;28;20468;-65
2023/05/10 09:39:20;;;;;;;3.80;0.97;;;20.30;16.20;;;;;;5056855;28;21233;-67
2023/05/10 09:41:48;;;;;;;3.30;0.70;;;20.10;16.30;;;;;;5065936;28;20461;-65
2023/05/10 09:44:19;;;;;;;3.97;0.80;;;20.00;16.80;;;;;;5064388;28;20508;-65
2023/05/10 09:46:52;;;;;;;3.80;0.90;;;19.90;17.30;;;;;;5057242;28;21001;-65
2023/05/10 09:49:19;;;;;;;3.57;0.70;;;19.90;17.80;;;;;;5060671;28;20539;-65
2023/05/10 09:51:46;;;;;;;3.60;0.83;;;19.90;17.40;;;;;;5057122;28;21135;-65
2023/05/10 09:54:14;;;;;;;3.67;0.70;;;20.00;17.00;;;;;;5065727;28;20480;-65
2023/05/10 09:56:42;;;;;;;3.77;0.70;;;19.90;16.60;;;;;;5060867;28;20475;-65
2023/05/10 09:59:10;;;;;;;4.03;0.87;;;19.90;16.70;;;;;;5063621;28;20445;-65
2023/05/10 10:01:37;;;;;;;3.50;0.80;;;20.00;16.80;;;;;;5059027;28;20828;-66
2023/05/10 10:04:07;;;;;;;3.60;0.70;;;20.10;17.20;;;;;;5061931;28;20457;-65
2023/05/10 10:06:38;;;;;;;3.43;0.63;;;20.30;16.90;;;;;;5056814;28;20458;-65
2023/05/10 10:09:05;;;;;;;3.30;0.80;;;20.30;15.70;;;;;;5050147;28;20477;-65
2023/05/10 10:11:32;;;;;;;3.20;0.50;;;20.40;15.20;;;;;;5056157;28;20457;-65
2023/05/10 10:13:59;;;;;;;3.57;0.57;;;20.50;15.50;;;;;;5065020;28;20468;-65
2023/05/10 10:16:27;;;;;;;4.17;1.03;;;20.50;14.90;;;;;;5062151;28;20465;-65
2023/05/10 10:18:54;;;;;;;3.13;0.40;;;20.60;14.50;;;;;;5061664;28;20464;-65
2023/05/10 10:21:23;;;;;;;3.90;0.60;;;20.70;13.40;;;;;;5059659;28;20469;-65
2023/05/10 10:23:50;;;;;;;3.50;0.70;;;20.70;12.80;;;;;;5063875;28;20468;-65
2023/05/10 10:26:19;;;;;;;3.40;0.60;;;20.60;13.10;;;;;;5059903;28;20500;-65
2023/05/10 10:28:52;;;;;;;3.90;0.80;;;20.50;13.60;;;;;;5058403;28;20481;-68
2023/05/10 10:31:27;;;;;;;4.40;0.80;;;20.50;13.40;;;;;;5066497;28;20590;-65
2023/05/10 10:34:01;;;;;;;3.50;0.67;;;20.40;13.80;;;;;;5061109;28;20821;-66
2023/05/10 10:36:30;;;;;;;5.03;0.90;;;20.40;14.50;;;;;;5065986;28;20492;-66
2023/05/10 10:39:01;;;;;;;3.70;0.63;;;20.40;14.50;;;;;;5066570;28;20465;-65
2023/05/10 10:41:35;;;;;;;3.60;0.80;;;20.40;14.80;;;;;;5061561;28;20461;-65
2023/05/10 10:44:25;;;;;;;3.70;0.73;;;20.50;14.30;;;;;;5059091;28;20456;-65
2023/05/10 10:47:28;;;;;;;3.10;0.50;;;20.60;13.30;;;;;;5055379;28;20465;-65
2023/05/10 10:50:04;;;;;;;4.60;0.70;;;20.60;13.30;;;;;;5062030;28;20480;-65
2023/05/10 10:52:34;;;;;;;3.27;0.63;;;20.50;12.80;;;;;;5056160;28;20452;-65
2023/05/10 10:55:02;;;;;;;3.20;0.50;;;20.40;13.40;;;;;;5053835;28;20478;-65
2023/05/10 10:57:33;;;;;;;3.50;0.50;;;20.30;13.70;;;;;;5055961;28;20831;-65
2023/05/10 11:00:33;;;;;;;3.43;0.70;;;20.30;14.20;;;;;;5058158;28;20814;-65
2023/05/10 11:03:04;;;;;;;4.20;0.90;;;20.40;14.60;;;;;;4981716;28;20468;-65
2023/05/10 11:05:41;;;;;;;3.73;0.80;;;20.30;14.00;;;;;;4985788;28;21124;-65
2023/05/10 11:08:12;;;;;;;3.37;0.53;;;20.10;14.90;;;;;;5026169;28;20461;-65
2023/05/10 11:10:39;;;;;;;3.57;0.40;;;20.10;14.70;;;;;;5058528;28;20461;-65
2023/05/10 11:13:08;;;;;;;3.37;0.70;;;20.00;13.70;;;;;;5056038;28;20457;-65
2023/05/10 11:15:37;;;;;;;3.03;0.30;;;19.90;13.70;;;;;;5048216;28;20556;-65
2023/05/10 11:18:18;;;;;;;4.00;0.57;;;19.90;14.50;;;;;;5057485;28;20476;-65
2023/05/10 11:20:46;;;;;;;4.07;0.70;;;19.90;14.00;;;;;;5056695;28;20490;-65
2023/05/10 11:23:17;;;;;;;5.03;0.93;;;20.00;14.50;;;;;;5051870;28;20974;-65
2023/05/10 11:25:44;;;;;;;3.30;0.70;;;20.00;15.30;;;;;;5055278;28;20927;-65
2023/05/10 11:28:11;;;;;;;3.70;0.73;;;19.90;16.00;;;;;;5056904;28;20531;-65
2023/05/10 11:30:40;;;;;;;3.40;0.73;;;19.90;16.30;;;;;;5062972;28;20468;-65
2023/05/10 11:33:07;;;;;;;4.03;0.97;;;19.80;16.30;;;;;;5066639;28;20457;-65
2023/05/10 11:35:39;;;;;;;4.53;0.70;;;19.70;16.10;;;;;;5068620;28;20483;-65
2023/05/10 11:38:07;;;;;;;3.37;0.60;;;19.60;16.10;;;;;;5056857;28;20469;-65
2023/05/10 11:40:36;;;;;;;3.37;0.60;;;19.80;16.70;;;;;;5067530;28;20481;-65
2023/05/10 11:43:03;;;;;;;3.90;1.00;;;19.80;16.10;;;;;;5074511;28;20458;-65
2023/05/10 11:45:32;;;;;;;4.00;0.80;;;19.90;16.40;;;;;;5071668;28;20476;-65
2023/05/10 11:48:00;;;;;;;3.70;0.80;;;20.00;16.40;;;;;;5072143;28;20835;-66
2023/05/10 11:50:27;;;;;;;4.37;0.70;;;20.10;16.30;;;;;;5066898;28;20559;-65
2023/05/10 11:52:54;;;;;;;3.67;0.73;;;20.10;15.80;;;;;;5067963;28;20479;-65
2023/05/10 11:55:21;;;;;;;3.70;1.00;;;20.10;15.90;;;;;;5072183;28;22058;-66
2023/05/10 11:57:53;;;;;;;3.50;0.70;;;20.10;15.80;;;;;;5064961;28;20541;-65
2023/05/10 12:00:20;;;;;;;5.93;1.13;;;20.10;15.40;;;;;;5066150;28;20458;-65
2023/05/10 12:02:47;;;;;;;3.27;0.63;;;20.10;14.70;;;;;;5058470;28;20472;-65
2023/05/10 12:05:14;;;;;;;7.23;0.80;;;20.00;14.60;;;;;;5061153;28;21025;-65
2023/05/10 12:07:41;;;;;;;3.90;0.90;;;19.90;14.90;;;;;;5061894;28;20466;-65
2023/05/10 12:10:10;;;;;;;4.40;2.07;;;19.80;15.30;;;;;;5064934;28;20487;-65
2023/05/10 12:12:38;;;;;;;4.37;0.70;;;19.60;15.60;;;;;;5067291;28;20461;-66
2023/05/10 12:15:12;;;;;;;3.40;0.70;;;19.50;16.00;;;;;;5064211;28;20477;-65
2023/05/10 12:17:39;;;;;;;11.00;1.00;;;19.40;16.50;;;;;;5067681;28;20966;-65
2023/05/10 12:20:16;;;;;;;5.53;0.90;;;19.30;16.70;;;;;;5065831;28;20519;-65
2023/05/10 12:22:47;;;;;;;3.40;0.63;;;19.10;17.20;;;;;;5067191;28;20453;-65
2023/05/10 12:25:15;;;;;;;10.20;0.73;;;18.90;17.60;;;;;;5069425;28;20476;-65
2023/05/10 12:27:48;;;;;;;3.50;0.70;;;18.80;17.90;;;;;;5069250;28;20805;-65
2023/05/10 12:30:21;;;;;;;3.40;0.73;;;18.60;18.20;;;;;;5073363;28;20492;-65
2023/05/10 12:32:47;;;;;;;3.60;0.67;;;18.40;18.60;;;;;;5070605;28;20461;-65
2023/05/10 12:35:15;;;;;;;3.57;0.80;;;18.20;19.10;;;;;;5063692;28;20488;-65
2023/05/10 12:37:43;;;;;;;3.70;0.90;;;18.10;19.60;;;;;;5070378;28;20474;-65
2023/05/10 12:40:11;;;;;;;3.87;0.90;;;17.90;20.80;;;;;;5071203;28;20457;-65
2023/05/10 12:42:39;;;;;;;3.53;0.60;;;17.80;20.20;;;;;;5074139;28;20473;-65
2023/05/10 12:45:08;;;;;;;5.10;0.83;;;17.70;20.30;;;;;;5069558;28;20489;-65
2023/05/10 12:47:37;;;;;;;4.30;0.80;;;17.70;21.20;;;;;;5069885;28;20465;-65
2023/05/10 12:50:04;;;;;;;3.50;0.80;;;17.50;21.70;;;;;;5069074;28;20535;-65
2023/05/10 12:52:32;;;;;;;3.50;0.60;;;17.50;22.50;;;;;;5068561;28;20960;-65
2023/05/10 12:55:00;;;;;;;3.90;0.73;;;17.40;22.20;;;;;;5069794;28;20477;-65